Lena, Illinois
Current Conditions -  °F | °C
As of 10:35 AM on Friday 24 Oct 2014 (Local Time) from KFEP Reporting Station
Haze Haze  
Wind Chill: 51°   Ceiling: 300
Heat Index: 51°   Visibility: 0.75mi
Dew Point: 50°   Wind: 5mph
Humidity: 99%   Direction: 180°S
Pressure: 30.07"   Gusts: NA
Location:  42.38°N, 89.82°W
Report Text: KFEP 241535Z AUTO 18004KT 3/4SM BR OVC003 10/10 A3007 RMK AO2 T01030101
Loading
Personal Weather Stations






























Interactive Weather Map
Tropical Storm Tracking
New forecast layout! Learn more

10-Day Weather Forecast

Advertisements
Track Severe Weather on mobile